createdAt,value
2019-01-16T00:01:23.934Z,1.50
2019-01-16T00:04:11.376Z,1.40
2019-01-16T00:06:54.789Z,1.50
2019-01-16T00:09:41.748Z,1.50
2019-01-16T00:12:30.874Z,1.40
2019-01-16T00:15:17.078Z,1.40
2019-01-16T00:18:05.498Z,1.40
2019-01-16T00:21:00.001Z,1.40
2019-01-16T00:23:45.085Z,1.40
2019-01-16T00:26:32.220Z,1.30
2019-01-16T00:29:19.511Z,1.40
2019-01-16T00:32:13.660Z,1.30
2019-01-16T00:35:17.458Z,1.30
2019-01-16T00:38:05.859Z,1.30
2019-01-16T00:41:03.554Z,1.30
2019-01-16T00:43:58.373Z,1.30
2019-01-16T00:46:41.415Z,1.30
2019-01-16T00:49:36.178Z,1.30
2019-01-16T00:52:31.121Z,1.30
2019-01-16T00:55:26.874Z,1.30
2019-01-16T00:58:07.646Z,1.20
2019-01-16T01:00:54.846Z,1.20
2019-01-16T01:03:38.599Z,1.20
2019-01-16T01:06:26.964Z,1.20
2019-01-16T01:09:30.785Z,1.20
2019-01-16T01:12:19.164Z,1.20
2019-01-16T01:15:12.157Z,1.20
2019-01-16T01:17:52.077Z,1.20
2019-01-16T01:20:35.241Z,1.20
2019-01-16T01:23:29.522Z,1.10
2019-01-16T01:26:20.989Z,1.10
2019-01-16T01:29:24.699Z,1.20
2019-01-16T01:32:31.373Z,1.10
2019-01-16T01:35:23.035Z,1.10
2019-01-16T01:38:17.818Z,1.10
2019-01-16T01:41:15.618Z,1.10
2019-01-16T01:44:22.558Z,1.10
2019-01-16T01:47:03.177Z,1.10
2019-01-16T01:49:43.393Z,1.10
2019-01-16T01:52:40.787Z,1.10
2019-01-16T01:55:35.043Z,1.10
2019-01-16T01:58:23.726Z,1.10
2019-01-16T02:01:02.348Z,1.00
2019-01-16T02:03:50.712Z,1.00
2019-01-16T02:06:39.109Z,1.00
2019-01-16T02:09:27.861Z,1.10
2019-01-16T02:12:16.255Z,1.00
2019-01-16T02:15:03.336Z,0.90
2019-01-16T02:18:06.766Z,1.00
2019-01-16T02:21:00.133Z,0.90
2019-01-16T02:23:56.943Z,0.90
2019-01-16T02:26:51.136Z,0.90
2019-01-16T02:29:31.892Z,0.90
2019-01-16T02:32:23.218Z,0.90
2019-01-16T02:35:23.222Z,0.80
2019-01-16T02:38:14.677Z,0.90
2019-01-16T02:41:09.142Z,0.90
2019-01-16T02:44:12.857Z,0.90
2019-01-16T02:47:11.935Z,0.90
2019-01-16T02:50:03.147Z,0.80
2019-01-16T02:53:01.708Z,0.80
2019-01-16T02:55:48.850Z,0.80
2019-01-16T02:58:43.587Z,0.80
2019-01-16T03:01:31.939Z,0.80
2019-01-16T03:04:20.325Z,0.80
2019-01-16T03:07:07.670Z,0.80
2019-01-16T03:09:44.785Z,0.80
2019-01-16T03:12:39.089Z,0.80
2019-01-16T03:15:26.894Z,0.80
2019-01-16T03:18:13.502Z,0.90
2019-01-16T03:21:03.096Z,0.80
2019-01-16T03:23:57.722Z,0.70
2019-01-16T03:26:36.793Z,0.80
2019-01-16T03:29:28.034Z,0.80
2019-01-16T03:32:19.286Z,0.70
2019-01-16T03:35:06.581Z,0.80
2019-01-16T03:37:58.934Z,0.80
2019-01-16T03:40:45.011Z,0.80
2019-01-16T03:43:33.364Z,0.80
2019-01-16T03:46:21.754Z,0.70
2019-01-16T03:49:23.202Z,0.70
2019-01-16T03:52:11.554Z,0.70
2019-01-16T03:54:54.222Z,0.70
2019-01-16T03:57:35.886Z,0.60
2019-01-16T04:00:27.621Z,0.70
2019-01-16T04:03:14.934Z,0.60
2019-01-16T04:06:09.364Z,0.70
2019-01-16T04:09:09.867Z,0.70
2019-01-16T04:11:56.909Z,0.60
2019-01-16T04:14:38.357Z,0.70
2019-01-16T04:17:24.983Z,0.60
2019-01-16T04:20:22.597Z,0.50
2019-01-16T04:23:14.050Z,0.60
2019-01-16T04:26:02.433Z,0.60
2019-01-16T04:28:59.841Z,0.60
2019-01-16T04:31:57.266Z,0.50
2019-01-16T04:34:44.667Z,0.60
2019-01-16T04:37:33.079Z,0.50
2019-01-16T04:40:20.257Z,0.50
2019-01-16T04:43:20.621Z,0.50
2019-01-16T04:46:04.600Z,0.50
2019-01-16T04:48:55.977Z,0.40
2019-01-16T04:51:44.373Z,0.50
2019-01-16T04:54:32.726Z,0.60
2019-01-16T04:57:19.825Z,0.50
2019-01-16T05:00:13.789Z,0.50
2019-01-16T05:03:01.049Z,0.50
2019-01-16T05:06:07.766Z,0.50
2019-01-16T05:08:56.208Z,0.50
2019-01-16T05:11:50.233Z,0.50
2019-01-16T05:14:38.614Z,0.40
2019-01-16T05:17:26.097Z,0.40
2019-01-16T05:20:15.588Z,0.50
2019-01-16T05:23:09.774Z,0.40
2019-01-16T05:26:13.477Z,0.50
2019-01-16T05:29:01.860Z,0.40
2019-01-16T05:31:44.722Z,0.40
2019-01-16T05:34:33.142Z,0.40
2019-01-16T05:37:36.868Z,0.40
2019-01-16T05:40:25.618Z,0.30
2019-01-16T05:43:13.084Z,0.30
2019-01-16T05:45:51.203Z,0.30
2019-01-16T05:48:38.696Z,0.40
2019-01-16T05:51:25.741Z,0.40
2019-01-16T05:54:17.116Z,0.50
2019-01-16T05:57:01.899Z,0.40
2019-01-16T05:59:51.908Z,0.00
2019-01-16T06:02:35.631Z,-0.10
2019-01-16T06:05:19.400Z,0.00
2019-01-16T06:08:06.782Z,0.10
2019-01-16T06:10:55.177Z,0.20
2019-01-16T06:13:34.943Z,0.10
2019-01-16T06:16:17.521Z,0.10
2019-01-16T06:19:12.111Z,0.10
2019-01-16T06:21:59.338Z,0.20
2019-01-16T06:24:56.760Z,0.10
2019-01-16T06:27:43.967Z,0.00
2019-01-16T06:30:49.226Z,0.10
2019-01-16T06:33:37.477Z,0.10
2019-01-16T06:36:25.883Z,0.00
2019-01-16T06:39:12.017Z,0.00
2019-01-16T06:41:59.381Z,0.00
2019-01-16T06:44:46.614Z,0.00
2019-01-16T06:47:34.033Z,0.00
2019-01-16T06:50:40.562Z,0.00
2019-01-16T06:53:34.981Z,0.00
2019-01-16T06:56:28.356Z,0.00
2019-01-16T06:59:25.992Z,0.00
2019-01-16T07:02:17.174Z,0.00
2019-01-16T07:05:23.965Z,0.00
2019-01-16T07:08:15.105Z,0.00
2019-01-16T07:11:06.577Z,0.00
2019-01-16T07:13:54.961Z,-0.10
2019-01-16T07:16:55.395Z,-0.10
2019-01-16T07:19:43.798Z,0.00
2019-01-16T07:22:31.132Z,0.00
2019-01-16T07:25:14.076Z,0.00
2019-01-16T07:28:02.513Z,0.00
2019-01-16T07:30:49.542Z,0.00
2019-01-16T07:33:44.196Z,0.00
2019-01-16T07:36:41.747Z,0.10
2019-01-16T07:39:37.657Z,0.10
2019-01-16T07:42:38.440Z,0.10
2019-01-16T07:45:43.809Z,0.10
2019-01-16T07:48:30.824Z,0.10
2019-01-16T07:51:34.358Z,0.10
2019-01-16T07:54:21.713Z,0.10
2019-01-16T07:57:03.446Z,0.20
2019-01-16T07:59:50.491Z,0.20
2019-01-16T08:02:37.786Z,0.10
2019-01-16T08:05:29.491Z,0.10
2019-01-16T08:08:27.229Z,0.40
2019-01-16T08:11:18.417Z,0.30
2019-01-16T08:14:24.894Z,0.30
2019-01-16T08:17:10.147Z,0.50
2019-01-16T08:19:57.657Z,0.60
2019-01-16T08:22:56.141Z,0.70
2019-01-16T08:25:47.092Z,0.60
2019-01-16T08:28:54.323Z,0.60
2019-01-16T08:31:51.671Z,0.60
2019-01-16T08:34:38.565Z,0.60
2019-01-16T08:37:33.277Z,0.60
2019-01-16T08:40:21.799Z,0.60
2019-01-16T08:43:10.140Z,0.70
2019-01-16T08:46:07.835Z,0.70
2019-01-16T08:49:05.139Z,0.70
2019-01-16T08:51:52.128Z,0.80
2019-01-16T08:54:39.395Z,0.90
2019-01-16T08:57:33.826Z,0.90
2019-01-16T09:00:28.433Z,1.00
2019-01-16T09:03:16.801Z,1.00
2019-01-16T09:06:08.416Z,1.00
2019-01-16T09:08:59.714Z,1.10
2019-01-16T09:11:54.154Z,1.10
2019-01-16T09:14:45.366Z,1.10
2019-01-16T09:17:36.839Z,1.10
2019-01-16T09:20:19.391Z,1.10
2019-01-16T09:23:06.678Z,1.20
2019-01-16T09:25:56.857Z,1.10
2019-01-16T09:28:44.367Z,1.10
2019-01-16T09:31:32.761Z,1.20
2019-01-16T09:34:36.586Z,1.20
2019-01-16T09:37:23.481Z,1.30
2019-01-16T09:40:10.946Z,1.40
2019-01-16T09:43:14.453Z,1.60
2019-01-16T09:46:02.840Z,1.70
2019-01-16T09:48:57.029Z,1.80
2019-01-16T09:51:44.360Z,2.00
2019-01-16T09:54:38.690Z,2.10
2019-01-16T09:57:22.511Z,2.10
2019-01-16T10:00:13.645Z,2.20
2019-01-16T10:03:02.040Z,2.40
2019-01-16T10:05:49.039Z,2.50
2019-01-16T10:08:40.231Z,2.60
2019-01-16T10:11:27.311Z,2.70
2019-01-16T10:14:13.017Z,2.80
2019-01-16T10:17:10.219Z,2.80
2019-01-16T10:20:13.711Z,2.90
2019-01-16T10:22:57.800Z,2.90
2019-01-16T10:25:50.988Z,2.90
2019-01-16T10:28:38.425Z,3.10
2019-01-16T10:31:21.445Z,3.20
2019-01-16T10:34:14.800Z,3.30
2019-01-16T10:37:03.142Z,3.40
2019-01-16T10:39:50.459Z,3.40
2019-01-16T10:42:25.935Z,3.60
2019-01-16T10:45:13.258Z,3.50
2019-01-16T10:47:52.349Z,3.80
2019-01-16T10:50:43.783Z,3.70
2019-01-16T10:53:27.921Z,3.70
2019-01-16T10:56:28.219Z,3.90
2019-01-16T10:59:15.213Z,4.30
2019-01-16T11:02:00.890Z,4.10
2019-01-16T11:04:48.027Z,4.30
2019-01-16T11:07:26.398Z,4.20
2019-01-16T11:10:26.618Z,4.20
2019-01-16T11:13:27.327Z,4.40
2019-01-16T11:16:30.932Z,4.60
2019-01-16T11:19:22.315Z,4.70
2019-01-16T11:22:14.246Z,4.60
2019-01-16T11:25:01.511Z,4.50
2019-01-16T11:27:44.366Z,4.60
2019-01-16T11:30:36.044Z,4.90
2019-01-16T11:33:38.261Z,4.80
2019-01-16T11:36:40.590Z,4.90
2019-01-16T11:39:44.274Z,4.70
2019-01-16T11:42:51.097Z,5.00
2019-01-16T11:45:48.525Z,5.00
2019-01-16T11:48:35.580Z,4.90
2019-01-16T11:51:33.554Z,5.30
2019-01-16T11:54:31.830Z,5.30
2019-01-16T11:57:19.081Z,5.20
2019-01-16T12:00:06.340Z,5.00
2019-01-16T12:03:00.784Z,5.20
2019-01-16T12:05:38.763Z,4.90
2019-01-16T12:08:45.306Z,5.10
2019-01-16T12:11:48.850Z,5.10
2019-01-16T12:14:49.091Z,5.00
2019-01-16T12:17:40.329Z,5.40
2019-01-16T12:20:27.381Z,5.70
2019-01-16T12:23:20.081Z,5.60
2019-01-16T12:26:11.453Z,5.50
2019-01-16T12:29:00.448Z,5.80
2019-01-16T12:32:07.130Z,5.70
2019-01-16T12:35:07.927Z,5.80
2019-01-16T12:37:54.875Z,6.00
2019-01-16T12:40:41.652Z,5.90
2019-01-16T12:43:28.535Z,5.80
2019-01-16T12:46:16.404Z,5.90
2019-01-16T12:49:10.604Z,5.80
2019-01-16T12:51:49.204Z,5.70
2019-01-16T12:54:40.563Z,5.60
2019-01-16T12:57:23.450Z,5.40
2019-01-16T13:00:11.518Z,5.20
2019-01-16T13:03:00.782Z,5.20
2019-01-16T13:05:41.418Z,5.20
2019-01-16T13:08:35.915Z,5.20
2019-01-16T13:11:23.075Z,5.20
2019-01-16T13:14:01.580Z,5.10
2019-01-16T13:16:56.020Z,5.00
2019-01-16T13:19:56.457Z,5.00
2019-01-16T13:22:47.632Z,5.00
2019-01-16T13:25:38.773Z,5.00
2019-01-16T13:28:28.894Z,5.00
2019-01-16T13:31:16.184Z,4.90
2019-01-16T13:34:16.514Z,4.70
2019-01-16T13:37:05.228Z,4.60
2019-01-16T13:39:50.367Z,4.80
2019-01-16T13:42:37.196Z,4.80
2019-01-16T13:45:32.934Z,4.60
2019-01-16T13:48:21.293Z,4.60
2019-01-16T13:51:06.031Z,4.70
2019-01-16T13:53:57.397Z,4.60
2019-01-16T13:56:50.519Z,4.40
2019-01-16T13:59:57.383Z,4.50
2019-01-16T14:02:43.278Z,4.80
2019-01-16T14:05:23.514Z,4.80
2019-01-16T14:08:10.631Z,4.80
2019-01-16T14:10:52.218Z,4.80
2019-01-16T14:13:37.793Z,4.60
2019-01-16T14:16:27.140Z,4.80
2019-01-16T14:19:18.536Z,4.60
2019-01-16T14:22:22.117Z,4.70
2019-01-16T14:25:22.521Z,4.60
2019-01-16T14:28:15.976Z,4.70
2019-01-16T14:31:00.450Z,4.60
2019-01-16T14:33:47.472Z,4.70
2019-01-16T14:36:34.672Z,4.70
2019-01-16T14:39:18.554Z,4.60
2019-01-16T14:42:04.153Z,4.40
2019-01-16T14:44:39.345Z,4.50
2019-01-16T14:47:27.737Z,4.50
2019-01-16T14:50:11.588Z,4.40
2019-01-16T14:53:00.013Z,4.60
2019-01-16T14:55:47.615Z,5.70
2019-01-16T14:58:36.891Z,6.20
2019-01-16T15:01:31.028Z,6.60
2019-01-16T15:04:19.412Z,6.90
2019-01-16T15:07:07.886Z,7.10
2019-01-16T15:10:04.650Z,7.20
2019-01-16T15:12:47.048Z,7.50
2019-01-16T15:15:25.738Z,7.50
2019-01-16T15:18:24.778Z,7.50
2019-01-16T15:21:29.209Z,7.60
2019-01-16T15:24:23.157Z,7.70
2019-01-16T15:27:12.616Z,7.70
2019-01-16T15:29:59.837Z,7.70
2019-01-16T15:33:00.558Z,7.60
2019-01-16T15:35:47.588Z,7.60
2019-01-16T15:38:37.773Z,7.70
2019-01-16T15:41:24.106Z,7.70
2019-01-16T15:44:13.068Z,7.60
2019-01-16T15:46:54.021Z,7.50
2019-01-16T15:49:51.510Z,7.50
2019-01-16T15:52:39.906Z,7.60
2019-01-16T15:55:37.642Z,7.50
2019-01-16T15:58:32.051Z,7.50
2019-01-16T16:01:20.742Z,7.30
2019-01-16T16:04:07.266Z,7.30
2019-01-16T16:06:55.612Z,7.30
2019-01-16T16:09:56.322Z,7.40
2019-01-16T16:12:43.564Z,7.30
2019-01-16T16:15:32.253Z,7.30
2019-01-16T16:18:20.664Z,7.30
2019-01-16T16:21:03.188Z,7.30
2019-01-16T16:23:50.584Z,7.20
2019-01-16T16:26:35.280Z,7.20
2019-01-16T16:29:22.289Z,7.10
2019-01-16T16:32:04.801Z,7.10
2019-01-16T16:34:52.139Z,7.10
2019-01-16T16:37:58.906Z,7.10
2019-01-16T16:40:37.197Z,7.10
2019-01-16T16:43:18.407Z,7.10
2019-01-16T16:45:57.692Z,7.00
2019-01-16T16:48:36.047Z,7.10
2019-01-16T16:51:23.266Z,7.00
2019-01-16T16:54:10.700Z,7.00
2019-01-16T16:57:14.213Z,7.00
2019-01-16T17:00:02.584Z,6.90
2019-01-16T17:03:03.857Z,7.00
2019-01-16T17:05:57.647Z,7.00
2019-01-16T17:08:43.132Z,7.00
2019-01-16T17:11:34.565Z,7.00
2019-01-16T17:14:21.725Z,7.00
2019-01-16T17:17:09.885Z,6.90
2019-01-16T17:20:06.474Z,6.90
2019-01-16T17:23:04.165Z,6.80
2019-01-16T17:25:44.867Z,6.80
2019-01-16T17:28:33.238Z,6.80
2019-01-16T17:31:20.542Z,6.70
2019-01-16T17:33:58.993Z,6.80
2019-01-16T17:36:53.452Z,6.80
2019-01-16T17:39:35.261Z,6.60
2019-01-16T17:42:23.484Z,6.60
2019-01-16T17:45:10.756Z,6.40
2019-01-16T17:48:08.208Z,6.50
2019-01-16T17:51:02.629Z,6.50
2019-01-16T17:54:03.148Z,6.50
2019-01-16T17:56:46.541Z,6.50
2019-01-16T17:59:47.292Z,6.40
2019-01-16T18:02:51.149Z,6.40
2019-01-16T18:05:39.637Z,6.50
2019-01-16T18:08:26.945Z,6.30
2019-01-16T18:11:15.129Z,6.30
2019-01-16T18:14:06.497Z,6.30
2019-01-16T18:17:00.689Z,6.20
2019-01-16T18:19:38.698Z,6.00
2019-01-16T18:22:21.449Z,6.10
2019-01-16T18:25:11.168Z,6.10
2019-01-16T18:27:56.156Z,6.10
2019-01-16T18:30:41.768Z,6.00
2019-01-16T18:33:29.069Z,6.00
2019-01-16T18:36:20.541Z,6.10
2019-01-16T18:39:00.954Z,6.10
2019-01-16T18:41:49.379Z,6.00
2019-01-16T18:44:43.652Z,5.90
2019-01-16T18:47:38.135Z,5.90
2019-01-16T18:50:35.584Z,5.90
2019-01-16T18:53:29.995Z,5.90
2019-01-16T18:56:34.195Z,5.90
2019-01-16T18:59:22.549Z,5.80
2019-01-16T19:02:16.897Z,5.80
2019-01-16T19:05:14.115Z,5.70
2019-01-16T19:08:01.523Z,5.70
2019-01-16T19:10:40.521Z,5.70
2019-01-16T19:13:28.912Z,5.70
2019-01-16T19:16:17.352Z,5.60
2019-01-16T19:19:14.694Z,5.70
2019-01-16T19:22:03.152Z,5.60
2019-01-16T19:25:00.753Z,5.60
2019-01-16T19:27:49.618Z,5.60
2019-01-16T19:30:43.779Z,5.50
2019-01-16T19:33:23.182Z,5.50
2019-01-16T19:36:14.257Z,5.50
2019-01-16T19:39:13.580Z,5.50
2019-01-16T19:42:00.584Z,5.40
2019-01-16T19:45:01.233Z,5.40
2019-01-16T19:48:01.686Z,5.40
2019-01-16T19:50:56.239Z,5.40
2019-01-16T19:53:43.328Z,5.30
2019-01-16T19:56:44.965Z,5.30
2019-01-16T19:59:33.427Z,5.30
2019-01-16T20:02:29.594Z,5.30
2019-01-16T20:05:33.619Z,5.30
2019-01-16T20:08:40.367Z,5.20
2019-01-16T20:11:43.673Z,5.10
2019-01-16T20:14:32.147Z,5.10
2019-01-16T20:17:18.613Z,5.10
2019-01-16T20:20:12.824Z,5.10
2019-01-16T20:23:01.209Z,5.10
2019-01-16T20:25:52.888Z,5.00
2019-01-16T20:28:40.175Z,5.00
2019-01-16T20:31:27.597Z,5.00
2019-01-16T20:34:17.852Z,5.00
2019-01-16T20:37:15.303Z,4.90
2019-01-16T20:39:55.173Z,4.90
2019-01-16T20:42:38.464Z,4.90
2019-01-16T20:45:33.193Z,4.90
2019-01-16T20:48:34.016Z,4.90
2019-01-16T20:51:17.663Z,4.80
2019-01-16T20:54:24.793Z,4.80
2019-01-16T20:57:13.182Z,4.80
2019-01-16T21:00:19.798Z,4.80
2019-01-16T21:03:10.843Z,4.70
2019-01-16T21:05:59.225Z,4.70
2019-01-16T21:08:50.657Z,4.70
2019-01-16T21:11:54.569Z,4.60
2019-01-16T21:14:41.688Z,4.60
2019-01-16T21:17:18.125Z,4.60
2019-01-16T21:20:04.742Z,4.60
2019-01-16T21:22:55.874Z,4.60
2019-01-16T21:25:47.276Z,4.50
2019-01-16T21:28:35.642Z,4.60
2019-01-16T21:31:33.223Z,4.50
2019-01-16T21:34:21.584Z,4.50
2019-01-16T21:37:09.962Z,4.40
2019-01-16T21:39:57.243Z,4.50
2019-01-16T21:42:37.350Z,4.40
2019-01-16T21:45:26.708Z,4.40
2019-01-16T21:48:09.028Z,4.40
2019-01-16T21:50:58.947Z,4.30
2019-01-16T21:53:48.786Z,4.30
2019-01-16T21:56:40.446Z,4.30
2019-01-16T21:59:29.994Z,4.30
2019-01-16T22:02:17.163Z,4.30
2019-01-16T22:05:23.962Z,4.30
2019-01-16T22:08:14.408Z,4.30
2019-01-16T22:11:07.853Z,4.20
2019-01-16T22:14:05.482Z,4.20
2019-01-16T22:16:51.121Z,4.20
2019-01-16T22:19:38.074Z,4.20
2019-01-16T22:22:24.139Z,4.10
2019-01-16T22:25:14.917Z,4.10
2019-01-16T22:28:01.927Z,4.10
2019-01-16T22:31:05.376Z,4.00
2019-01-16T22:34:08.747Z,4.00
2019-01-16T22:36:57.114Z,4.00
2019-01-16T22:40:00.918Z,4.00
2019-01-16T22:42:47.959Z,4.00
2019-01-16T22:45:40.368Z,4.00
2019-01-16T22:48:28.609Z,4.00
2019-01-16T22:51:23.942Z,3.90
2019-01-16T22:54:13.095Z,3.90
2019-01-16T22:56:53.629Z,3.90
2019-01-16T22:59:40.818Z,3.90
2019-01-16T23:02:32.187Z,3.80
2019-01-16T23:05:20.850Z,3.80
2019-01-16T23:08:02.413Z,3.70
2019-01-16T23:10:43.319Z,3.80
2019-01-16T23:13:31.982Z,3.80
2019-01-16T23:16:27.262Z,3.70
2019-01-16T23:19:33.757Z,3.70
2019-01-16T23:22:20.781Z,3.70
2019-01-16T23:25:08.370Z,3.70
2019-01-16T23:28:02.677Z,3.60
2019-01-16T23:30:50.521Z,3.70
2019-01-16T23:33:37.763Z,3.70
2019-01-16T23:36:17.379Z,3.60
2019-01-16T23:39:08.817Z,3.50
2019-01-16T23:41:57.201Z,3.60
2019-01-16T23:44:45.591Z,3.70
2019-01-16T23:47:36.834Z,3.70
2019-01-16T23:50:32.864Z,3.60
2019-01-16T23:53:24.023Z,3.60
2019-01-16T23:56:14.332Z,3.50
2019-01-16T23:59:05.525Z,3.60
